Aurora, Minnesota
Current Conditions -  °F | °C
As of 9:11 PM on Thursday 18 Dec 2014 (Local Time) from KEVM Reporting Station
Overcast Overcast  
Wind Chill: -5°   Ceiling: 1700
Heat Index: -5°   Visibility: 10mi
Dew Point: -7°   Wind: 3mph
Humidity: 86%   Direction: 150°SSE
Pressure: 30.22"   Gusts: NA
Location:  47.53°N, 92.24°W
Report Text: KEVM 190311Z AUTO 15003KT 10SM OVC017 M05/M07 A3022 RMK AO2
Loading
Personal Weather Stations






























Interactive Weather Map New forecast layout! Learn more

10-Day Weather Forecast

Advertisements
Track Severe Weather on mobile